Time;durP1;ratioP1;P1;durP2;ratioP2;P2;SDS_P1;SDS_P2;PMS_P1;PMS_P2;Temp;Humidity;BMP_temperature;BMP_pressure;BME280_temperature;BME280_humidity;BME280_pressure;Samples;Min_cycle;Max_cycle;Signal;HPM_P1;HPM_P2
2021/09/24 00:00:27;;;;;;;27.15;15.02;;;17.20;63.10;;;;;;4934193;29;20409;-77
2021/09/24 00:02:53;;;;;;;27.00;15.00;;;17.20;62.80;;;;;;4936157;29;20434;-77
2021/09/24 00:05:19;;;;;;;29.67;16.23;;;17.20;64.70;;;;;;4933198;29;20391;-76
2021/09/24 00:07:45;;;;;;;28.87;15.13;;;17.20;66.30;;;;;;4934161;29;20406;-77
2021/09/24 00:10:12;;;;;;;30.48;16.27;;;17.10;67.50;;;;;;4943430;29;20392;-76
2021/09/24 00:12:39;;;;;;;29.70;15.95;;;17.00;69.00;;;;;;4943534;29;20426;-76
2021/09/24 00:15:07;;;;;;;29.63;16.42;;;17.00;70.00;;;;;;4941053;29;20390;-77
2021/09/24 00:17:33;;;;;;;30.27;17.08;;;17.00;70.30;;;;;;4952953;28;20394;-78
2021/09/24 00:19:58;;;;;;;28.17;17.70;;;17.00;70.50;;;;;;4957770;28;20425;-77
2021/09/24 00:22:24;;;;;;;29.02;17.30;;;17.00;71.90;;;;;;4958476;28;20417;-78
2021/09/24 00:24:50;;;;;;;28.98;16.10;;;17.10;70.40;;;;;;4963438;29;20453;-78
2021/09/24 00:27:15;;;;;;;29.60;17.93;;;17.10;68.80;;;;;;4962500;28;20884;-78
2021/09/24 00:29:41;;;;;;;30.50;18.47;;;17.00;68.80;;;;;;4957020;29;20445;-77
2021/09/24 00:32:07;;;;;;;27.67;18.50;;;17.00;70.60;;;;;;4954335;28;20424;-77
2021/09/24 00:34:32;;;;;;;31.90;19.08;;;17.00;72.40;;;;;;4937423;29;20765;-78
2021/09/24 00:36:58;;;;;;;29.15;18.60;;;16.80;74.70;;;;;;4936791;29;20392;-77
2021/09/24 00:39:24;;;;;;;29.98;19.10;;;16.70;76.90;;;;;;4944946;28;20448;-77
2021/09/24 00:41:50;;;;;;;30.10;19.33;;;16.60;77.30;;;;;;4955884;28;20437;-77
2021/09/24 00:44:15;;;;;;;31.65;19.65;;;16.60;77.00;;;;;;4937654;28;20761;-78
2021/09/24 00:46:41;;;;;;;31.33;18.60;;;16.60;76.80;;;;;;4949014;29;20485;-76
2021/09/24 00:49:07;;;;;;;32.25;18.40;;;16.80;75.50;;;;;;4954899;29;20410;-76
2021/09/24 00:51:32;;;;;;;31.88;20.55;;;16.90;75.90;;;;;;4953878;29;20473;-76
2021/09/24 00:53:58;;;;;;;36.63;19.60;;;16.70;76.70;;;;;;4938961;28;20404;-76
2021/09/24 00:56:26;;;;;;;34.27;20.50;;;16.60;76.50;;;;;;4936403;29;20396;-77
2021/09/24 00:58:51;;;;;;;36.83;20.27;;;16.60;77.30;;;;;;4936047;29;20805;-76
2021/09/24 01:01:17;;;;;;;39.23;20.27;;;16.60;77.60;;;;;;4935999;29;20577;-77
2021/09/24 01:03:42;;;;;;;36.53;20.35;;;16.50;80.60;;;;;;4934542;29;20459;-77
2021/09/24 01:06:08;;;;;;;36.10;20.20;;;16.40;82.00;;;;;;4951103;29;20398;-77
2021/09/24 01:08:34;;;;;;;34.93;19.57;;;16.50;80.40;;;;;;4955672;29;20421;-77
2021/09/24 01:10:59;;;;;;;30.37;19.13;;;16.50;80.80;;;;;;4958275;28;21014;-78
2021/09/24 01:13:25;;;;;;;34.65;20.40;;;16.50;82.70;;;;;;4958472;29;20418;-78
2021/09/24 01:15:51;;;;;;;36.50;21.50;;;16.40;84.80;;;;;;4957594;29;20390;-78
2021/09/24 01:18:16;;;;;;;37.08;20.75;;;16.50;82.20;;;;;;4939564;29;20829;-78
2021/09/24 01:20:42;;;;;;;33.80;20.38;;;16.40;83.50;;;;;;4940497;29;20460;-77
2021/09/24 01:23:08;;;;;;;33.05;19.60;;;16.50;83.70;;;;;;4954063;28;20402;-76
2021/09/24 01:25:33;;;;;;;34.60;20.93;;;16.50;79.70;;;;;;4954328;29;20386;-77
2021/09/24 01:27:59;;;;;;;32.50;19.90;;;16.60;77.70;;;;;;4954690;29;20457;-77
2021/09/24 01:30:25;;;;;;;36.03;18.95;;;16.50;79.20;;;;;;4953871;28;20488;-76
2021/09/24 01:32:51;;;;;;;31.88;20.02;;;16.60;77.00;;;;;;4954570;29;20390;-76
2021/09/24 01:35:17;;;;;;;33.08;19.73;;;16.60;77.50;;;;;;4953051;28;20468;-75
2021/09/24 01:37:43;;;;;;;35.25;18.73;;;16.70;75.20;;;;;;4954230;28;20408;-75
2021/09/24 01:40:15;;;;;;;36.22;19.92;;;16.70;74.90;;;;;;4953734;28;20831;-75
2021/09/24 01:42:41;;;;;;;31.25;19.00;;;16.70;72.90;;;;;;4937429;28;20410;-76
2021/09/24 01:45:08;;;;;;;34.72;19.95;;;16.70;74.40;;;;;;4935003;29;20751;-76
2021/09/24 01:47:34;;;;;;;33.50;19.10;;;16.80;72.40;;;;;;4935035;29;20784;-76
2021/09/24 01:50:00;;;;;;;41.17;20.73;;;16.80;70.60;;;;;;4935308;29;20407;-74
2021/09/24 01:52:25;;;;;;;32.37;20.07;;;16.70;73.50;;;;;;4934712;29;20829;-75
2021/09/24 01:54:51;;;;;;;37.67;20.57;;;16.70;73.70;;;;;;4934841;29;20758;-76
2021/09/24 01:57:17;;;;;;;38.60;20.80;;;16.80;72.40;;;;;;4935511;29;20888;-76
2021/09/24 01:59:42;;;;;;;37.25;20.45;;;16.70;74.10;;;;;;4942347;29;20406;-77
2021/09/24 02:02:08;;;;;;;39.80;24.10;;;16.60;76.50;;;;;;4955459;29;20404;-78
2021/09/24 02:04:33;;;;;;;38.35;23.10;;;16.70;73.60;;;;;;4954201;28;20402;-76
2021/09/24 02:06:59;;;;;;;45.10;24.27;;;16.80;72.10;;;;;;4954659;29;20931;-76
2021/09/24 02:09:24;;;;;;;47.43;25.83;;;16.80;72.40;;;;;;4969522;28;20417;-77
2021/09/24 02:11:50;;;;;;;52.95;27.60;;;16.70;73.10;;;;;;4948446;28;20403;-77
2021/09/24 02:14:15;;;;;;;58.38;31.23;;;16.80;73.60;;;;;;4940827;29;20818;-77
2021/09/24 02:16:41;;;;;;;59.90;29.83;;;16.80;73.30;;;;;;4956248;29;20425;-77
2021/09/24 02:19:07;;;;;;;54.67;30.23;;;16.70;73.40;;;;;;4963546;28;20464;-76
2021/09/24 02:21:32;;;;;;;57.65;30.67;;;16.70;74.20;;;;;;4962062;28;20713;-79
2021/09/24 02:23:58;;;;;;;63.22;33.47;;;16.70;75.90;;;;;;4949978;28;20466;-75
2021/09/24 02:26:24;;;;;;;59.33;34.22;;;16.70;75.30;;;;;;4945451;29;20395;-77
2021/09/24 02:28:49;;;;;;;70.33;36.53;;;16.80;75.00;;;;;;4942088;29;20746;-77
2021/09/24 02:31:15;;;;;;;61.13;34.40;;;16.80;73.30;;;;;;4936428;29;20562;-77
2021/09/24 02:33:41;;;;;;;67.83;34.20;;;16.70;75.80;;;;;;4934168;29;20407;-76
2021/09/24 02:36:09;;;;;;;71.68;36.70;;;16.80;75.70;;;;;;4934387;29;20406;-77
2021/09/24 02:38:35;;;;;;;65.40;36.42;;;16.80;76.10;;;;;;4934606;29;20388;-77
2021/09/24 02:41:02;;;;;;;73.72;38.10;;;16.70;78.20;;;;;;4953302;28;20412;-77
2021/09/24 02:43:27;;;;;;;66.68;35.55;;;16.80;77.70;;;;;;4952444;29;20394;-76
2021/09/24 02:45:53;;;;;;;74.15;39.38;;;16.80;78.00;;;;;;4947940;28;20427;-76
2021/09/24 02:48:19;;;;;;;73.93;38.40;;;16.70;80.00;;;;;;4936600;29;20746;-76
2021/09/24 02:50:44;;;;;;;73.50;37.47;;;16.60;81.00;;;;;;4938635;29;20800;-76
2021/09/24 02:53:10;;;;;;;80.65;39.03;;;16.60;82.40;;;;;;4944674;29;20757;-76
2021/09/24 02:55:36;;;;;;;71.07;37.10;;;16.50;85.10;;;;;;4938212;29;20483;-76
2021/09/24 02:58:01;;;;;;;76.23;39.37;;;16.50;86.60;;;;;;4934655;29;20395;-77
2021/09/24 03:00:27;;;;;;;75.23;40.10;;;16.50;85.70;;;;;;4934116;29;20396;-76
2021/09/24 03:02:53;;;;;;;71.70;38.37;;;16.60;83.90;;;;;;4933820;29;20428;-76
2021/09/24 03:05:19;;;;;;;77.07;38.80;;;16.60;81.30;;;;;;4935069;29;20430;-76
2021/09/24 03:07:44;;;;;;;72.77;37.70;;;16.60;83.00;;;;;;4936803;29;20840;-77
2021/09/24 03:10:11;;;;;;;74.35;38.58;;;16.60;81.40;;;;;;4941883;29;20427;-76
2021/09/24 03:12:37;;;;;;;69.55;37.70;;;16.70;82.40;;;;;;4945932;29;20396;-76
2021/09/24 03:15:05;;;;;;;74.83;37.50;;;16.70;81.30;;;;;;4948410;29;20394;-77
2021/09/24 03:17:31;;;;;;;68.97;38.25;;;16.60;82.80;;;;;;4938250;29;20750;-76
2021/09/24 03:19:56;;;;;;;70.50;38.43;;;16.70;81.30;;;;;;4940139;29;20403;-77
2021/09/24 03:22:22;;;;;;;78.50;39.37;;;16.70;81.00;;;;;;4960012;29;20490;-76
2021/09/24 03:24:48;;;;;;;86.63;41.35;;;16.70;82.20;;;;;;4954295;28;20408;-76
2021/09/24 03:27:13;;;;;;;86.53;42.30;;;16.70;81.20;;;;;;4955557;29;20394;-77
2021/09/24 03:29:39;;;;;;;82.93;42.45;;;16.70;79.90;;;;;;4953827;28;20414;-76
2021/09/24 03:32:05;;;;;;;82.63;41.28;;;16.70;78.70;;;;;;4941147;28;20774;-77
2021/09/24 03:34:31;;;;;;;82.07;40.55;;;16.70;80.20;;;;;;4935457;29;20392;-77
2021/09/24 03:36:56;;;;;;;83.55;42.13;;;16.80;80.20;;;;;;4934925;29;20387;-76
2021/09/24 03:39:22;;;;;;;85.50;42.27;;;16.70;80.00;;;;;;4939622;28;20394;-76
2021/09/24 03:41:47;;;;;;;84.83;41.77;;;16.70;81.00;;;;;;4951685;29;20759;-77
2021/09/24 03:44:13;;;;;;;90.80;43.40;;;16.70;81.40;;;;;;4939218;28;20765;-77
2021/09/24 03:46:39;;;;;;;92.15;44.63;;;16.60;81.90;;;;;;4945145;29;20414;-76
2021/09/24 03:49:05;;;;;;;84.82;43.72;;;16.70;80.80;;;;;;4952543;28;20504;-75
2021/09/24 03:51:31;;;;;;;97.47;44.23;;;16.70;82.40;;;;;;4952448;28;20386;-75
2021/09/24 03:53:57;;;;;;;95.90;45.60;;;16.60;83.00;;;;;;4952718;28;20413;-77
2021/09/24 03:56:23;;;;;;;93.40;43.58;;;16.60;82.20;;;;;;4939320;28;20423;-76
2021/09/24 03:58:49;;;;;;;88.60;44.38;;;16.60;82.30;;;;;;4943898;29;20476;-77
2021/09/24 04:01:14;;;;;;;94.60;41.03;;;16.60;82.00;;;;;;4940968;29;20423;-76
2021/09/24 04:03:42;;;;;;;82.20;39.92;;;16.70;80.40;;;;;;4939508;29;20399;-75
2021/09/24 04:06:09;;;;;;;73.70;38.63;;;16.60;81.30;;;;;;4938113;29;20569;-77
2021/09/24 04:08:34;;;;;;;78.60;40.57;;;16.60;82.20;;;;;;4951725;29;20512;-75
2021/09/24 04:11:00;;;;;;;65.53;34.03;;;16.60;85.10;;;;;;4956648;29;20494;-76
2021/09/24 04:13:25;;;;;;;58.30;31.33;;;16.60;84.60;;;;;;4956006;29;20701;-76
2021/09/24 04:15:51;;;;;;;68.82;33.35;;;16.60;81.70;;;;;;4961115;29;20399;-76
2021/09/24 04:18:17;;;;;;;60.95;30.73;;;16.60;81.50;;;;;;4958836;29;20455;-75
2021/09/24 04:20:42;;;;;;;59.93;30.37;;;16.60;81.30;;;;;;4964956;29;20413;-76
2021/09/24 04:23:08;;;;;;;62.13;30.57;;;16.60;81.70;;;;;;4955319;28;20405;-77
2021/09/24 04:25:33;;;;;;;62.30;31.30;;;16.60;81.50;;;;;;4955474;29;20405;-75
2021/09/24 04:27:59;;;;;;;60.53;30.52;;;16.50;81.20;;;;;;4954822;28;20907;-75
2021/09/24 04:30:24;;;;;;;63.23;29.43;;;16.60;82.50;;;;;;4954081;29;20408;-75
2021/09/24 04:32:50;;;;;;;57.07;29.50;;;16.60;82.40;;;;;;4962327;29;20783;-74
2021/09/24 04:35:15;;;;;;;64.05;31.10;;;16.60;83.60;;;;;;4961083;28;20439;-74
2021/09/24 04:37:41;;;;;;;58.17;32.83;;;16.70;79.70;;;;;;4947179;29;20402;-74
2021/09/24 04:40:07;;;;;;;56.65;31.38;;;16.70;78.50;;;;;;4945657;28;20950;-76
2021/09/24 04:42:33;;;;;;;64.40;32.25;;;16.60;78.70;;;;;;4954975;28;20872;-75
2021/09/24 04:45:00;;;;;;;63.60;30.98;;;16.60;80.50;;;;;;4949747;28;20438;-75
2021/09/24 04:47:25;;;;;;;62.90;32.67;;;16.50;81.30;;;;;;4954179;29;20461;-75
2021/09/24 04:49:52;;;;;;;73.00;34.90;;;16.50;81.50;;;;;;4955721;29;20501;-74
2021/09/24 04:52:18;;;;;;;62.25;32.97;;;16.60;80.30;;;;;;4955265;28;20385;-75
2021/09/24 04:54:43;;;;;;;61.67;32.75;;;16.60;79.20;;;;;;4955025;28;20390;-74
2021/09/24 04:57:09;;;;;;;56.90;31.05;;;16.70;77.60;;;;;;4950068;29;20407;-77
2021/09/24 04:59:35;;;;;;;57.40;31.73;;;16.70;77.70;;;;;;4938761;29;20471;-76
2021/09/24 05:02:00;;;;;;;64.45;33.33;;;16.60;79.60;;;;;;4935882;29;20396;-76
2021/09/24 05:04:26;;;;;;;68.78;32.03;;;16.50;81.80;;;;;;4935931;29;20455;-76
2021/09/24 05:06:51;;;;;;;64.80;31.70;;;16.60;81.50;;;;;;4936368;29;20399;-75
2021/09/24 05:09:17;;;;;;;65.63;34.20;;;16.50;82.00;;;;;;4940611;29;21095;-75
2021/09/24 05:11:43;;;;;;;59.30;33.37;;;16.40;84.00;;;;;;4955046;29;20386;-76
2021/09/24 05:14:08;;;;;;;70.10;34.53;;;16.50;82.10;;;;;;4958630;28;20410;-76
2021/09/24 05:16:34;;;;;;;68.07;34.53;;;16.50;83.10;;;;;;4968700;28;20415;-77
2021/09/24 05:18:59;;;;;;;61.93;35.20;;;16.50;83.10;;;;;;4963378;29;20394;-77
2021/09/24 05:21:25;;;;;;;70.50;34.83;;;16.50;81.90;;;;;;4957920;29;20462;-76
2021/09/24 05:23:50;;;;;;;64.38;33.72;;;16.40;83.70;;;;;;4954534;28;20499;-77
2021/09/24 05:26:16;;;;;;;61.77;34.40;;;16.40;84.50;;;;;;4967218;28;20427;-78
2021/09/24 05:28:41;;;;;;;61.00;34.00;;;16.40;84.70;;;;;;4981302;28;20427;-77
2021/09/24 05:31:07;;;;;;;57.50;33.50;;;16.30;84.80;;;;;;4964825;28;20412;-76
2021/09/24 05:33:33;;;;;;;55.17;31.92;;;16.30;84.00;;;;;;4981235;28;20447;-77
2021/09/24 05:35:59;;;;;;;62.80;33.92;;;16.40;84.40;;;;;;4978681;28;20396;-76
2021/09/24 05:38:24;;;;;;;66.40;33.92;;;16.40;83.00;;;;;;4981844;28;20416;-77
2021/09/24 05:40:50;;;;;;;57.08;33.70;;;16.50;82.40;;;;;;4975129;28;20409;-77
2021/09/24 05:43:16;;;;;;;65.28;35.10;;;16.50;81.90;;;;;;4970994;28;20430;-78
2021/09/24 05:45:41;;;;;;;73.70;39.40;;;16.40;82.50;;;;;;4961929;29;20415;-78
2021/09/24 05:48:07;;;;;;;78.30;40.70;;;16.30;84.80;;;;;;4946218;29;20454;-78
2021/09/24 05:50:33;;;;;;;78.07;40.40;;;16.30;84.20;;;;;;4964588;28;20416;-77
2021/09/24 05:52:59;;;;;;;73.60;39.97;;;16.40;83.60;;;;;;4965242;28;20769;-76
2021/09/24 05:55:25;;;;;;;75.65;42.08;;;16.50;80.60;;;;;;4953338;28;20430;-75
2021/09/24 05:57:52;;;;;;;83.55;41.15;;;16.40;81.00;;;;;;4944651;29;20400;-76
2021/09/24 06:00:19;;;;;;;84.15;44.50;;;16.40;83.10;;;;;;4963751;28;20407;-77
2021/09/24 06:02:46;;;;;;;91.20;44.17;;;16.40;83.60;;;;;;4970450;28;20399;-77
2021/09/24 06:05:12;;;;;;;94.30;43.65;;;16.40;82.70;;;;;;4979685;28;20483;-76
2021/09/24 06:07:38;;;;;;;77.97;41.75;;;16.30;83.30;;;;;;4968102;28;20403;-78
2021/09/24 06:10:06;;;;;;;80.03;41.70;;;16.30;85.60;;;;;;4961166;28;20459;-77
2021/09/24 06:12:32;;;;;;;81.97;41.72;;;16.30;84.50;;;;;;4966467;28;20955;-77
2021/09/24 06:15:00;;;;;;;80.13;40.33;;;16.30;83.50;;;;;;4968692;28;20710;-77
2021/09/24 06:17:26;;;;;;;72.13;40.03;;;16.40;82.10;;;;;;4956177;29;20393;-76
2021/09/24 06:19:51;;;;;;;83.07;46.20;;;16.40;79.90;;;;;;4957823;28;20633;-77
2021/09/24 06:22:17;;;;;;;78.50;42.95;;;16.30;82.30;;;;;;4980090;28;20412;-78
2021/09/24 06:24:45;;;;;;;72.35;39.50;;;16.30;82.80;;;;;;4962604;28;20398;-77
2021/09/24 06:27:15;;;;;;;73.95;38.75;;;16.30;81.50;;;;;;4954826;28;20398;-76
2021/09/24 06:29:46;;;;;;;64.68;36.58;;;16.30;81.10;;;;;;4956535;28;20895;-78
2021/09/24 06:32:12;;;;;;;67.43;39.35;;;16.30;81.20;;;;;;4959505;28;20412;-77
2021/09/24 06:34:39;;;;;;;76.80;41.27;;;16.30;80.60;;;;;;4966069;28;20488;-77
2021/09/24 06:37:05;;;;;;;66.30;38.35;;;16.20;81.40;;;;;;4963977;28;20405;-75
2021/09/24 06:39:30;;;;;;;61.75;37.75;;;16.30;80.40;;;;;;4958018;28;20416;-77
2021/09/24 06:41:56;;;;;;;61.47;36.70;;;16.30;79.90;;;;;;4958164;28;20417;-76
2021/09/24 06:44:22;;;;;;;58.45;36.10;;;16.30;77.80;;;;;;4956582;28;20397;-77
2021/09/24 06:46:47;;;;;;;69.57;37.90;;;16.20;79.60;;;;;;4969388;28;20407;-76
2021/09/24 06:49:13;;;;;;;71.65;39.08;;;16.10;81.80;;;;;;4965520;28;20433;-76
2021/09/24 06:51:39;;;;;;;66.57;36.80;;;16.10;84.20;;;;;;4964401;28;20400;-75
2021/09/24 06:54:05;;;;;;;62.07;35.40;;;16.20;83.60;;;;;;4972993;28;20384;-76
2021/09/24 06:56:32;;;;;;;61.97;33.85;;;16.10;81.10;;;;;;4960866;28;20443;-75
2021/09/24 06:59:00;;;;;;;63.22;32.70;;;16.20;77.90;;;;;;4965417;28;20404;-81
2021/09/24 07:01:26;;;;;;;60.20;34.78;;;16.20;78.50;;;;;;4968846;28;20477;-75
2021/09/24 07:03:52;;;;;;;59.15;31.88;;;16.20;78.20;;;;;;4977244;28;20404;-76
2021/09/24 07:06:17;;;;;;;57.65;32.20;;;16.30;75.80;;;;;;4962757;28;20412;-76
2021/09/24 07:08:43;;;;;;;57.90;32.20;;;16.30;76.90;;;;;;4967843;28;20757;-81
2021/09/24 07:11:09;;;;;;;56.30;32.08;;;16.20;76.90;;;;;;4957042;28;20437;-77
2021/09/24 07:13:34;;;;;;;56.77;30.90;;;16.40;77.10;;;;;;4952188;29;20938;-77
2021/09/24 07:16:02;;;;;;;55.55;30.38;;;16.40;75.70;;;;;;4960197;28;20513;-77
2021/09/24 07:18:28;;;;;;;56.92;30.48;;;16.50;73.00;;;;;;4957063;29;20404;-77
2021/09/24 07:20:53;;;;;;;52.43;29.63;;;16.50;72.30;;;;;;4954227;28;20419;-76
2021/09/24 07:23:20;;;;;;;55.23;30.23;;;16.50;72.00;;;;;;4959950;28;20432;-79
2021/09/24 07:25:46;;;;;;;49.28;28.95;;;16.50;73.20;;;;;;4966041;28;20407;-75
2021/09/24 07:28:11;;;;;;;56.33;29.27;;;16.50;71.90;;;;;;4938675;29;20939;-77
2021/09/24 07:30:37;;;;;;;54.28;30.88;;;16.50;74.50;;;;;;4949831;29;20744;-77
2021/09/24 07:33:02;;;;;;;48.17;28.73;;;16.50;73.00;;;;;;4941489;29;20480;-77
2021/09/24 07:35:28;;;;;;;51.00;29.43;;;16.50;72.80;;;;;;4948894;29;20526;-76
2021/09/24 07:37:54;;;;;;;50.97;27.90;;;16.50;73.20;;;;;;4951474;28;20434;-75
2021/09/24 07:40:19;;;;;;;55.28;29.48;;;16.60;72.20;;;;;;4968680;28;20407;-77
2021/09/24 07:42:45;;;;;;;52.40;29.45;;;16.60;73.60;;;;;;4943011;28;20464;-76
2021/09/24 07:45:11;;;;;;;58.37;30.17;;;16.60;72.60;;;;;;4956531;29;20401;-76
2021/09/24 07:47:36;;;;;;;46.37;29.07;;;16.60;71.20;;;;;;4951612;29;20512;-75
2021/09/24 07:50:03;;;;;;;52.30;30.33;;;16.70;70.90;;;;;;4954224;29;20419;-78
2021/09/24 07:52:31;;;;;;;56.73;30.67;;;16.70;72.20;;;;;;4945292;29;20539;-77
2021/09/24 07:54:56;;;;;;;49.47;28.27;;;16.70;71.60;;;;;;4942005;29;20395;-75
2021/09/24 07:57:22;;;;;;;48.28;28.70;;;16.70;69.80;;;;;;4979277;23;20531;-74
2021/09/24 07:59:47;;;;;;;49.60;27.35;;;16.70;70.60;;;;;;5013444;28;20408;-74
2021/09/24 08:02:13;;;;;;;51.25;28.50;;;16.70;69.10;;;;;;5008991;28;20405;-75
2021/09/24 08:04:39;;;;;;;47.60;26.97;;;16.70;69.70;;;;;;5013584;28;20435;-75
2021/09/24 08:07:06;;;;;;;52.87;27.77;;;16.70;70.60;;;;;;5016113;28;20793;-75
2021/09/24 08:09:32;;;;;;;61.67;29.37;;;16.80;69.30;;;;;;5026664;28;20527;-76
2021/09/24 08:12:00;;;;;;;54.23;28.07;;;16.80;68.10;;;;;;5022010;28;20405;-76
2021/09/24 08:14:26;;;;;;;49.60;26.60;;;16.80;67.60;;;;;;5012501;28;20414;-78
2021/09/24 08:16:52;;;;;;;49.15;25.83;;;16.90;66.40;;;;;;5010993;28;20555;-78
2021/09/24 08:19:17;;;;;;;46.00;26.80;;;16.90;66.50;;;;;;5018524;28;20419;-78
2021/09/24 08:21:43;;;;;;;45.75;26.15;;;16.90;65.60;;;;;;5016918;28;20933;-78
2021/09/24 08:24:08;;;;;;;49.73;27.13;;;17.00;66.10;;;;;;5010199;28;20418;-77
2021/09/24 08:26:34;;;;;;;50.97;27.20;;;17.20;64.00;;;;;;5007181;28;20831;-77
2021/09/24 08:28:59;;;;;;;54.03;28.23;;;17.20;63.00;;;;;;5008967;28;20413;-76
2021/09/24 08:31:25;;;;;;;53.05;29.42;;;17.20;62.40;;;;;;4997569;28;20414;-77
2021/09/24 08:33:51;;;;;;;54.67;28.63;;;17.30;62.10;;;;;;5003775;28;20761;-76
2021/09/24 08:36:17;;;;;;;51.47;28.93;;;17.30;61.30;;;;;;4995691;28;20477;-75
2021/09/24 08:38:44;;;;;;;61.05;31.63;;;17.40;59.70;;;;;;4996855;28;20772;-78
2021/09/24 08:41:09;;;;;;;55.20;31.10;;;17.40;61.00;;;;;;5004049;28;20467;-77
2021/09/24 08:43:35;;;;;;;53.07;29.90;;;17.30;60.60;;;;;;4998572;28;20407;-75
2021/09/24 08:46:01;;;;;;;62.37;30.67;;;17.30;62.20;;;;;;5004573;28;20480;-77
2021/09/24 08:48:28;;;;;;;53.95;28.27;;;17.20;61.90;;;;;;5009982;28;20436;-76
2021/09/24 08:50:55;;;;;;;61.05;32.00;;;17.30;61.10;;;;;;5001813;28;20958;-76
2021/09/24 08:53:22;;;;;;;51.37;29.10;;;17.30;61.60;;;;;;5000482;28;20402;-76
2021/09/24 08:55:48;;;;;;;58.40;29.67;;;17.50;58.40;;;;;;4992887;28;20425;-76
2021/09/24 08:58:15;;;;;;;46.00;24.77;;;17.70;57.60;;;;;;5006182;28;20424;-76
2021/09/24 09:00:42;;;;;;;48.38;26.10;;;17.90;54.30;;;;;;5015429;28;20801;-77
2021/09/24 09:03:38;;;;;;;44.33;25.23;;;17.90;53.30;;;;;;5011869;28;20492;-76
2021/09/24 09:06:05;;;;;;;50.40;24.55;;;17.90;54.00;;;;;;5002805;28;20766;-76
2021/09/24 09:08:31;;;;;;;44.10;22.95;;;17.90;54.10;;;;;;4992440;28;20453;-76
2021/09/24 09:11:02;;;;;;;40.47;22.10;;;17.90;53.90;;;;;;4993794;28;20414;-75
2021/09/24 09:13:31;;;;;;;45.05;22.70;;;18.00;52.80;;;;;;5009919;28;20440;-77
2021/09/24 09:15:59;;;;;;;41.67;21.15;;;18.20;52.80;;;;;;5013630;28;20467;-75
2021/09/24 09:18:26;;;;;;;38.60;20.17;;;18.30;49.60;;;;;;5012489;28;20396;-77
2021/09/24 09:20:52;;;;;;;38.10;20.17;;;18.30;49.90;;;;;;4997005;28;20816;-77
2021/09/24 09:23:21;;;;;;;31.65;19.05;;;18.30;49.80;;;;;;4993925;28;22039;-77
2021/09/24 09:25:49;;;;;;;34.75;17.95;;;18.40;48.90;;;;;;4992799;28;20597;-77
2021/09/24 09:28:30;;;;;;;27.42;16.70;;;18.60;48.50;;;;;;5009320;28;20416;-76
2021/09/24 09:30:57;;;;;;;35.20;19.73;;;19.00;45.70;;;;;;4995139;28;21030;-77
2021/09/24 09:33:24;;;;;;;30.42;19.17;;;19.00;44.90;;;;;;4997180;28;20493;-77
2021/09/24 09:35:59;;;;;;;29.10;17.75;;;19.20;43.00;;;;;;5004229;28;20402;-76
2021/09/24 09:38:39;;;;;;;41.30;20.98;;;19.40;42.10;;;;;;5004322;28;20416;-76
2021/09/24 09:41:09;;;;;;;35.38;19.10;;;19.40;42.40;;;;;;5000803;28;20403;-76
2021/09/24 09:43:39;;;;;;;34.70;20.20;;;19.50;41.30;;;;;;4998628;28;20468;-76
2021/09/24 09:46:10;;;;;;;35.58;19.83;;;19.50;40.80;;;;;;5003983;28;20500;-75
2021/09/24 09:48:36;;;;;;;33.25;18.92;;;19.60;40.70;;;;;;4993701;28;20421;-77
2021/09/24 09:51:02;;;;;;;34.25;18.15;;;19.70;40.30;;;;;;4992763;28;20903;-76
2021/09/24 09:53:28;;;;;;;30.90;19.20;;;19.80;39.90;;;;;;5009086;28;20405;-76
2021/09/24 09:56:02;;;;;;;31.13;19.10;;;19.80;39.70;;;;;;5008551;28;20444;-76
2021/09/24 09:58:34;;;;;;;36.03;19.47;;;19.90;40.10;;;;;;5018246;28;20408;-76
2021/09/24 10:01:04;;;;;;;36.60;19.80;;;19.90;39.30;;;;;;5018642;28;20396;-76
2021/09/24 10:03:40;;;;;;;33.33;18.30;;;20.10;38.50;;;;;;5014654;28;20385;-77
2021/09/24 10:06:34;;;;;;;35.33;19.35;;;19.90;39.30;;;;;;5018303;28;20455;-76
2021/09/24 10:09:03;;;;;;;30.85;17.50;;;19.80;39.30;;;;;;5020602;28;20420;-76
2021/09/24 10:11:37;;;;;;;29.42;17.10;;;19.80;39.60;;;;;;5005283;28;20402;-75
2021/09/24 10:14:09;;;;;;;31.65;14.82;;;19.90;39.50;;;;;;4993431;28;20398;-77
2021/09/24 10:16:47;;;;;;;25.05;14.88;;;20.00;38.80;;;;;;5009557;28;20412;-75
2021/09/24 10:19:15;;;;;;;24.13;14.52;;;20.10;37.60;;;;;;5003112;28;20402;-76
2021/09/24 10:21:41;;;;;;;22.23;14.45;;;20.00;37.10;;;;;;5000687;28;20416;-75
2021/09/24 10:24:07;;;;;;;25.15;15.00;;;20.10;36.60;;;;;;5006513;28;20405;-77
2021/09/24 10:26:35;;;;;;;23.03;15.47;;;20.20;36.10;;;;;;4999502;28;20409;-76
2021/09/24 10:29:14;;;;;;;22.65;15.05;;;20.20;36.50;;;;;;4993425;28;20420;-75
2021/09/24 10:31:47;;;;;;;28.27;14.73;;;20.20;36.90;;;;;;5012127;28;20428;-77
2021/09/24 10:34:17;;;;;;;22.25;15.57;;;20.20;36.60;;;;;;5002978;28;20398;-77
2021/09/24 10:36:45;;;;;;;23.92;16.02;;;20.20;36.50;;;;;;4999320;28;20901;-76
2021/09/24 10:39:28;;;;;;;27.08;17.30;;;20.20;36.60;;;;;;5011106;28;21017;-77
2021/09/24 10:42:21;;;;;;;19.60;14.90;;;20.20;37.30;;;;;;5002967;28;20408;-76
2021/09/24 10:44:58;;;;;;;23.95;15.50;;;20.20;36.60;;;;;;4998251;28;20409;-77
2021/09/24 10:47:54;;;;;;;28.15;16.55;;;20.20;37.00;;;;;;5009852;28;20750;-75
2021/09/24 10:53:43;;;;;;;27.07;14.43;;;20.10;37.20;;;;;;5003803;28;20890;-77
2021/09/24 10:56:08;;;;;;;29.05;15.20;;;20.10;37.30;;;;;;5009266;28;20777;-77
2021/09/24 10:58:39;;;;;;;24.13;15.15;;;20.10;37.30;;;;;;4992906;28;20642;-78
2021/09/24 11:01:11;;;;;;;24.15;13.50;;;20.20;37.20;;;;;;4994709;28;20390;-77
2021/09/24 11:03:57;;;;;;;22.05;14.20;;;20.40;36.40;;;;;;5008415;28;20432;-77
2021/09/24 11:06:39;;;;;;;20.05;14.23;;;20.50;35.70;;;;;;5008459;28;20397;-76
2021/09/24 11:09:10;;;;;;;23.98;13.80;;;20.60;35.10;;;;;;5021038;28;20446;-77
2021/09/24 11:11:39;;;;;;;26.00;14.02;;;20.70;34.90;;;;;;5008241;28;20447;-77
2021/09/24 11:14:30;;;;;;;27.30;14.38;;;21.00;34.50;;;;;;5000002;28;20402;-77
2021/09/24 11:16:57;;;;;;;28.92;12.80;;;21.20;33.00;;;;;;4993593;28;20398;-77
2021/09/24 11:19:46;;;;;;;20.40;12.85;;;21.50;32.10;;;;;;5010904;28;20435;-77
2021/09/24 11:22:37;;;;;;;23.45;14.55;;;21.60;31.00;;;;;;5011356;28;20396;-75
2021/09/24 11:25:10;;;;;;;22.60;13.20;;;21.60;30.70;;;;;;5011504;28;20396;-76
2021/09/24 11:27:45;;;;;;;25.35;12.60;;;21.40;31.30;;;;;;5020498;28;20391;-76
2021/09/24 11:30:14;;;;;;;18.87;11.10;;;21.30;30.90;;;;;;5004407;28;20416;-76
2021/09/24 11:32:46;;;;;;;19.17;11.07;;;21.30;31.70;;;;;;5013758;28;20385;-78
2021/09/24 11:35:36;;;;;;;14.85;10.25;;;21.30;30.90;;;;;;5004916;28;20901;-76
2021/09/24 11:38:12;;;;;;;16.30;9.80;;;21.30;31.00;;;;;;5013173;28;20480;-76
2021/09/24 11:40:38;;;;;;;17.60;10.27;;;21.10;31.50;;;;;;5012151;28;20395;-76
2021/09/24 11:43:04;;;;;;;15.17;10.00;;;21.00;32.00;;;;;;5016225;28;20453;-77
2021/09/24 11:45:31;;;;;;;15.88;8.23;;;21.10;31.70;;;;;;4997768;28;20379;-76
2021/09/24 11:48:03;;;;;;;19.88;8.70;;;21.30;31.00;;;;;;5006741;28;20402;-79
2021/09/24 11:50:30;;;;;;;15.55;9.43;;;21.50;30.20;;;;;;5013256;28;20435;-78
2021/09/24 11:53:02;;;;;;;20.17;8.30;;;21.70;29.40;;;;;;5008152;28;20422;-77
2021/09/24 11:55:35;;;;;;;14.23;9.00;;;21.90;28.70;;;;;;4999189;28;20449;-78
2021/09/24 11:58:09;;;;;;;17.50;9.73;;;21.90;28.90;;;;;;5016726;28;20406;-78
2021/09/24 12:00:49;;;;;;;13.40;8.80;;;21.90;28.80;;;;;;5014616;28;20501;-77
2021/09/24 12:03:27;;;;;;;17.50;8.30;;;22.10;28.20;;;;;;5012977;28;20398;-76
2021/09/24 12:06:01;;;;;;;11.98;7.70;;;22.30;27.90;;;;;;5005985;28;20503;-80
2021/09/24 12:08:40;;;;;;;17.15;7.63;;;22.60;26.70;;;;;;5028867;28;20464;-80
2021/09/24 12:11:16;;;;;;;12.35;7.13;;;22.60;26.10;;;;;;5034063;28;20923;-80
2021/09/24 12:13:50;;;;;;;15.93;7.40;;;22.70;26.30;;;;;;5021467;28;20389;-78
2021/09/24 12:16:25;;;;;;;14.40;7.75;;;22.40;26.20;;;;;;5020274;28;20416;-82
2021/09/24 12:19:00;;;;;;;11.85;6.57;;;22.20;27.30;;;;;;5026645;28;20519;-79
2021/09/24 12:21:51;;;;;;;10.60;6.40;;;22.20;27.10;;;;;;5027516;28;20425;-78
2021/09/24 12:24:29;;;;;;;14.23;6.50;;;21.90;27.90;;;;;;5050925;28;20410;-79
2021/09/24 12:27:07;;;;;;;15.43;7.03;;;21.70;28.70;;;;;;5052609;28;20391;-79
2021/09/24 12:29:34;;;;;;;22.08;7.68;;;21.50;29.40;;;;;;5053944;28;20398;-76
2021/09/24 12:32:06;;;;;;;15.43;6.47;;;21.40;30.30;;;;;;5047132;28;20387;-80
2021/09/24 12:35:01;;;;;;;12.80;7.03;;;21.40;29.80;;;;;;5039171;28;20376;-79